sensor_id;sensor_type;location;lat;lon;timestamp;temperature;humidity
23411;DHT22;11878;51.774;7.220;2022-12-20T00:01:32;10.20;99.90
23411;DHT22;11878;51.774;7.220;2022-12-20T00:04:35;10.20;99.90
23411;DHT22;11878;51.774;7.220;2022-12-20T00:07:36;10.20;99.90
23411;DHT22;11878;51.774;7.220;2022-12-20T00:10:41;10.20;99.90
23411;DHT22;11878;51.774;7.220;2022-12-20T00:13:45;10.30;99.90
23411;DHT22;11878;51.774;7.220;2022-12-20T00:16:47;10.30;99.90
23411;DHT22;11878;51.774;7.220;2022-12-20T00:19:48;10.30;99.90
23411;DHT22;11878;51.774;7.220;2022-12-20T00:22:50;10.30;99.90
23411;DHT22;11878;51.774;7.220;2022-12-20T00:25:52;10.20;99.90
23411;DHT22;11878;51.774;7.220;2022-12-20T00:28:54;10.20;99.90
23411;DHT22;11878;51.774;7.220;2022-12-20T00:31:57;10.30;99.90
23411;DHT22;11878;51.774;7.220;2022-12-20T00:34:59;10.30;99.90
23411;DHT22;11878;51.774;7.220;2022-12-20T00:38:00;10.30;99.90
23411;DHT22;11878;51.774;7.220;2022-12-20T00:41:06;10.40;99.90
23411;DHT22;11878;51.774;7.220;2022-12-20T00:44:10;10.40;99.90
23411;DHT22;11878;51.774;7.220;2022-12-20T00:47:12;10.40;99.90
23411;DHT22;11878;51.774;7.220;2022-12-20T00:50:14;10.50;99.90
23411;DHT22;11878;51.774;7.220;2022-12-20T00:53:16;10.50;99.90
23411;DHT22;11878;51.774;7.220;2022-12-20T00:56:26;10.50;99.90
23411;DHT22;11878;51.774;7.220;2022-12-20T00:59:29;10.50;99.90
23411;DHT22;11878;51.774;7.220;2022-12-20T01:02:31;10.50;99.90
23411;DHT22;11878;51.774;7.220;2022-12-20T01:05:33;10.60;99.90
23411;DHT22;11878;51.774;7.220;2022-12-20T01:08:35;10.60;99.90
23411;DHT22;11878;51.774;7.220;2022-12-20T01:11:38;10.60;99.90
23411;DHT22;11878;51.774;7.220;2022-12-20T01:14:40;10.50;99.90
23411;DHT22;11878;51.774;7.220;2022-12-20T01:17:42;10.60;99.90
23411;DHT22;11878;51.774;7.220;2022-12-20T01:20:43;10.50;99.90
23411;DHT22;11878;51.774;7.220;2022-12-20T01:23:46;10.50;99.90
23411;DHT22;11878;51.774;7.220;2022-12-20T01:26:48;10.60;99.90
23411;DHT22;11878;51.774;7.220;2022-12-20T01:29:52;10.60;99.90
23411;DHT22;11878;51.774;7.220;2022-12-20T01:32:54;10.60;99.90
23411;DHT22;11878;51.774;7.220;2022-12-20T01:35:57;10.60;99.90
23411;DHT22;11878;51.774;7.220;2022-12-20T01:39:05;10.60;99.90
23411;DHT22;11878;51.774;7.220;2022-12-20T01:42:13;10.60;99.90
23411;DHT22;11878;51.774;7.220;2022-12-20T01:45:24;10.50;99.90
23411;DHT22;11878;51.774;7.220;2022-12-20T01:48:28;10.60;99.90
23411;DHT22;11878;51.774;7.220;2022-12-20T01:51:31;10.60;99.90
23411;DHT22;11878;51.774;7.220;2022-12-20T01:54:38;10.60;99.90
23411;DHT22;11878;51.774;7.220;2022-12-20T01:58:02;10.60;99.90
23411;DHT22;11878;51.774;7.220;2022-12-20T02:01:05;10.70;99.90
23411;DHT22;11878;51.774;7.220;2022-12-20T02:04:08;10.60;99.90
23411;DHT22;11878;51.774;7.220;2022-12-20T02:07:16;10.70;99.90
23411;DHT22;11878;51.774;7.220;2022-12-20T02:10:21;10.70;99.90
23411;DHT22;11878;51.774;7.220;2022-12-20T02:13:36;10.70;99.90
23411;DHT22;11878;51.774;7.220;2022-12-20T02:17:12;10.70;99.90
23411;DHT22;11878;51.774;7.220;2022-12-20T02:27:19;10.60;99.90
23411;DHT22;11878;51.774;7.220;2022-12-20T02:30:31;10.60;99.90
23411;DHT22;11878;51.774;7.220;2022-12-20T02:33:34;10.70;99.90
23411;DHT22;11878;51.774;7.220;2022-12-20T02:36:43;10.70;99.90
23411;DHT22;11878;51.774;7.220;2022-12-20T02:39:45;10.70;99.90
23411;DHT22;11878;51.774;7.220;2022-12-20T02:42:52;10.70;99.90
23411;DHT22;11878;51.774;7.220;2022-12-20T02:45:58;10.70;99.90
23411;DHT22;11878;51.774;7.220;2022-12-20T02:49:03;10.80;99.90
23411;DHT22;11878;51.774;7.220;2022-12-20T02:52:07;10.80;99.90
23411;DHT22;11878;51.774;7.220;2022-12-20T02:55:09;10.80;99.90
23411;DHT22;11878;51.774;7.220;2022-12-20T02:58:31;10.80;99.90
23411;DHT22;11878;51.774;7.220;2022-12-20T03:01:38;10.80;99.90
23411;DHT22;11878;51.774;7.220;2022-12-20T03:04:42;10.70;99.90
23411;DHT22;11878;51.774;7.220;2022-12-20T03:07:46;10.80;99.90
23411;DHT22;11878;51.774;7.220;2022-12-20T03:10:49;10.70;99.90
23411;DHT22;11878;51.774;7.220;2022-12-20T03:13:51;10.70;99.90
23411;DHT22;11878;51.774;7.220;2022-12-20T03:16:53;10.70;99.90
23411;DHT22;11878;51.774;7.220;2022-12-20T03:19:55;10.80;99.90
23411;DHT22;11878;51.774;7.220;2022-12-20T03:22:57;10.80;99.90
23411;DHT22;11878;51.774;7.220;2022-12-20T03:25:58;10.80;99.90
23411;DHT22;11878;51.774;7.220;2022-12-20T03:29:19;10.70;99.90
23411;DHT22;11878;51.774;7.220;2022-12-20T03:32:22;10.60;99.90
23411;DHT22;11878;51.774;7.220;2022-12-20T03:35:24;10.50;99.90
23411;DHT22;11878;51.774;7.220;2022-12-20T03:38:26;10.50;99.90
23411;DHT22;11878;51.774;7.220;2022-12-20T03:41:27;10.40;99.90
23411;DHT22;11878;51.774;7.220;2022-12-20T03:44:29;10.40;99.90
23411;DHT22;11878;51.774;7.220;2022-12-20T03:47:31;10.40;99.90
23411;DHT22;11878;51.774;7.220;2022-12-20T03:50:33;10.40;99.90
23411;DHT22;11878;51.774;7.220;2022-12-20T03:53:37;10.40;99.90
23411;DHT22;11878;51.774;7.220;2022-12-20T03:56:39;10.40;99.90
23411;DHT22;11878;51.774;7.220;2022-12-20T03:59:41;10.40;99.90
23411;DHT22;11878;51.774;7.220;2022-12-20T04:02:47;10.40;99.90
23411;DHT22;11878;51.774;7.220;2022-12-20T04:05:49;10.50;99.90
23411;DHT22;11878;51.774;7.220;2022-12-20T04:08:51;10.50;99.90
23411;DHT22;11878;51.774;7.220;2022-12-20T04:12:01;10.50;99.90
23411;DHT22;11878;51.774;7.220;2022-12-20T04:15:05;10.40;99.90
23411;DHT22;11878;51.774;7.220;2022-12-20T04:18:08;10.50;99.90
23411;DHT22;11878;51.774;7.220;2022-12-20T04:21:10;10.50;99.90
23411;DHT22;11878;51.774;7.220;2022-12-20T04:24:16;10.40;99.90
23411;DHT22;11878;51.774;7.220;2022-12-20T04:27:25;10.50;99.90
23411;DHT22;11878;51.774;7.220;2022-12-20T04:30:29;10.50;99.90
23411;DHT22;11878;51.774;7.220;2022-12-20T04:33:31;10.40;99.90
23411;DHT22;11878;51.774;7.220;2022-12-20T04:36:33;10.50;99.90
23411;DHT22;11878;51.774;7.220;2022-12-20T04:39:38;10.40;99.90
23411;DHT22;11878;51.774;7.220;2022-12-20T04:43:03;10.50;99.90
23411;DHT22;11878;51.774;7.220;2022-12-20T04:46:05;10.40;99.90
23411;DHT22;11878;51.774;7.220;2022-12-20T04:49:07;10.50;99.90
23411;DHT22;11878;51.774;7.220;2022-12-20T04:52:12;10.40;99.90
23411;DHT22;11878;51.774;7.220;2022-12-20T04:55:37;10.50;99.90
23411;DHT22;11878;51.774;7.220;2022-12-20T04:58:40;10.50;99.90
23411;DHT22;11878;51.774;7.220;2022-12-20T05:01:43;10.40;99.90
23411;DHT22;11878;51.774;7.220;2022-12-20T05:04:50;10.50;99.90
23411;DHT22;11878;51.774;7.220;2022-12-20T05:07:52;10.50;99.90
23411;DHT22;11878;51.774;7.220;2022-12-20T05:10:54;10.50;99.90
23411;DHT22;11878;51.774;7.220;2022-12-20T05:13:56;10.40;99.90
23411;DHT22;11878;51.774;7.220;2022-12-20T05:16:58;10.40;99.90
23411;DHT22;11878;51.774;7.220;2022-12-20T05:20:02;10.40;99.90
23411;DHT22;11878;51.774;7.220;2022-12-20T05:23:05;10.50;99.90
23411;DHT22;11878;51.774;7.220;2022-12-20T05:26:35;10.40;99.90
23411;DHT22;11878;51.774;7.220;2022-12-20T05:29:38;10.30;99.90
23411;DHT22;11878;51.774;7.220;2022-12-20T05:32:40;10.30;99.90
23411;DHT22;11878;51.774;7.220;2022-12-20T05:35:42;10.30;99.90
23411;DHT22;11878;51.774;7.220;2022-12-20T05:38:47;10.20;99.90
23411;DHT22;11878;51.774;7.220;2022-12-20T05:41:51;10.30;99.90
23411;DHT22;11878;51.774;7.220;2022-12-20T05:44:57;10.30;99.90
23411;DHT22;11878;51.774;7.220;2022-12-20T05:47:59;10.30;99.90
23411;DHT22;11878;51.774;7.220;2022-12-20T05:51:02;10.30;99.90
23411;DHT22;11878;51.774;7.220;2022-12-20T05:54:07;10.30;99.90
23411;DHT22;11878;51.774;7.220;2022-12-20T05:57:20;10.40;99.90
23411;DHT22;11878;51.774;7.220;2022-12-20T06:00:22;10.30;99.90
23411;DHT22;11878;51.774;7.220;2022-12-20T06:03:25;10.30;99.90
23411;DHT22;11878;51.774;7.220;2022-12-20T06:06:28;10.30;99.90
23411;DHT22;11878;51.774;7.220;2022-12-20T06:09:31;10.20;99.90
23411;DHT22;11878;51.774;7.220;2022-12-20T06:12:43;10.20;99.90
23411;DHT22;11878;51.774;7.220;2022-12-20T06:15:46;10.20;99.90
23411;DHT22;11878;51.774;7.220;2022-12-20T06:18:47;10.20;99.90
23411;DHT22;11878;51.774;7.220;2022-12-20T06:21:51;10.20;99.90
23411;DHT22;11878;51.774;7.220;2022-12-20T06:24:59;10.30;99.90
23411;DHT22;11878;51.774;7.220;2022-12-20T06:28:04;10.20;99.90
23411;DHT22;11878;51.774;7.220;2022-12-20T06:31:09;10.30;99.90
23411;DHT22;11878;51.774;7.220;2022-12-20T06:34:24;10.20;99.90
23411;DHT22;11878;51.774;7.220;2022-12-20T06:37:26;10.20;99.90
23411;DHT22;11878;51.774;7.220;2022-12-20T06:40:28;10.30;99.90
23411;DHT22;11878;51.774;7.220;2022-12-20T06:43:33;10.30;99.90
23411;DHT22;11878;51.774;7.220;2022-12-20T06:46:36;10.20;99.90
23411;DHT22;11878;51.774;7.220;2022-12-20T06:49:38;10.30;99.90
23411;DHT22;11878;51.774;7.220;2022-12-20T06:52:46;10.30;99.90
23411;DHT22;11878;51.774;7.220;2022-12-20T06:55:49;10.30;99.90
23411;DHT22;11878;51.774;7.220;2022-12-20T06:58:51;10.40;99.90
23411;DHT22;11878;51.774;7.220;2022-12-20T07:01:53;10.30;99.90
23411;DHT22;11878;51.774;7.220;2022-12-20T07:04:55;10.40;99.90
23411;DHT22;11878;51.774;7.220;2022-12-20T07:07:57;10.40;99.90
23411;DHT22;11878;51.774;7.220;2022-12-20T07:11:06;10.40;99.90
23411;DHT22;11878;51.774;7.220;2022-12-20T07:14:08;10.40;99.90
23411;DHT22;11878;51.774;7.220;2022-12-20T07:17:10;10.40;99.90
23411;DHT22;11878;51.774;7.220;2022-12-20T07:20:12;10.30;99.90
23411;DHT22;11878;51.774;7.220;2022-12-20T07:23:15;10.30;99.90
23411;DHT22;11878;51.774;7.220;2022-12-20T07:26:17;10.40;99.90
23411;DHT22;11878;51.774;7.220;2022-12-20T07:29:18;10.50;99.90
23411;DHT22;11878;51.774;7.220;2022-12-20T07:32:20;10.50;99.90
23411;DHT22;11878;51.774;7.220;2022-12-20T07:35:22;10.50;99.90
23411;DHT22;11878;51.774;7.220;2022-12-20T07:38:26;10.50;99.90
23411;DHT22;11878;51.774;7.220;2022-12-20T07:41:29;11.20;99.90
23411;DHT22;11878;51.774;7.220;2022-12-20T07:44:31;10.60;99.90
23411;DHT22;11878;51.774;7.220;2022-12-20T07:47:33;10.60;99.90
23411;DHT22;11878;51.774;7.220;2022-12-20T07:50:36;10.50;99.90
23411;DHT22;11878;51.774;7.220;2022-12-20T07:53:42;10.50;99.90
23411;DHT22;11878;51.774;7.220;2022-12-20T07:56:47;10.50;99.90
23411;DHT22;11878;51.774;7.220;2022-12-20T07:59:54;10.50;99.90
23411;DHT22;11878;51.774;7.220;2022-12-20T08:03:12;10.60;99.90
23411;DHT22;11878;51.774;7.220;2022-12-20T08:06:16;10.70;99.90
23411;DHT22;11878;51.774;7.220;2022-12-20T08:09:19;10.70;99.90
23411;DHT22;11878;51.774;7.220;2022-12-20T08:12:21;10.70;99.90
23411;DHT22;11878;51.774;7.220;2022-12-20T08:15:23;10.70;99.90
23411;DHT22;11878;51.774;7.220;2022-12-20T08:18:25;10.60;99.90
23411;DHT22;11878;51.774;7.220;2022-12-20T08:21:27;10.60;99.90
23411;DHT22;11878;51.774;7.220;2022-12-20T08:24:30;10.70;99.90
23411;DHT22;11878;51.774;7.220;2022-12-20T08:27:31;10.80;99.90
23411;DHT22;11878;51.774;7.220;2022-12-20T08:30:34;10.90;99.90
23411;DHT22;11878;51.774;7.220;2022-12-20T08:33:36;10.90;99.90
23411;DHT22;11878;51.774;7.220;2022-12-20T08:36:38;11.10;99.90
23411;DHT22;11878;51.774;7.220;2022-12-20T08:39:40;11.10;99.90
23411;DHT22;11878;51.774;7.220;2022-12-20T08:42:41;11.30;99.90
23411;DHT22;11878;51.774;7.220;2022-12-20T08:45:44;11.30;99.90
23411;DHT22;11878;51.774;7.220;2022-12-20T08:48:45;11.30;99.90
23411;DHT22;11878;51.774;7.220;2022-12-20T08:51:47;11.30;99.90
23411;DHT22;11878;51.774;7.220;2022-12-20T08:54:49;11.40;99.90
23411;DHT22;11878;51.774;7.220;2022-12-20T08:57:51;11.40;99.90
23411;DHT22;11878;51.774;7.220;2022-12-20T09:00:52;11.30;99.90
23411;DHT22;11878;51.774;7.220;2022-12-20T09:03:54;11.40;99.90
23411;DHT22;11878;51.774;7.220;2022-12-20T09:06:56;11.40;99.90
23411;DHT22;11878;51.774;7.220;2022-12-20T09:09:58;11.50;99.90
23411;DHT22;11878;51.774;7.220;2022-12-20T09:12:59;11.50;99.90
23411;DHT22;11878;51.774;7.220;2022-12-20T09:16:02;11.60;99.90
23411;DHT22;11878;51.774;7.220;2022-12-20T09:19:05;11.50;99.90
23411;DHT22;11878;51.774;7.220;2022-12-20T09:22:07;11.60;99.90
23411;DHT22;11878;51.774;7.220;2022-12-20T09:25:09;11.60;99.90
23411;DHT22;11878;51.774;7.220;2022-12-20T09:28:10;11.70;99.90
23411;DHT22;11878;51.774;7.220;2022-12-20T09:31:14;11.70;99.90
23411;DHT22;11878;51.774;7.220;2022-12-20T09:34:16;11.70;99.90
23411;DHT22;11878;51.774;7.220;2022-12-20T09:37:18;11.70;99.90
23411;DHT22;11878;51.774;7.220;2022-12-20T09:40:22;11.80;99.90
23411;DHT22;11878;51.774;7.220;2022-12-20T09:43:24;11.80;99.90
23411;DHT22;11878;51.774;7.220;2022-12-20T09:46:27;11.90;99.90
23411;DHT22;11878;51.774;7.220;2022-12-20T09:49:33;12.00;99.90
23411;DHT22;11878;51.774;7.220;2022-12-20T09:53:04;12.00;99.90
23411;DHT22;11878;51.774;7.220;2022-12-20T09:56:33;12.00;99.90
23411;DHT22;11878;51.774;7.220;2022-12-20T09:59:37;12.10;99.90
23411;DHT22;11878;51.774;7.220;2022-12-20T10:02:49;12.20;99.90
23411;DHT22;11878;51.774;7.220;2022-12-20T10:16:46;12.00;99.90
23411;DHT22;11878;51.774;7.220;2022-12-20T10:26:55;12.00;99.90
23411;DHT22;11878;51.774;7.220;2022-12-20T10:29:57;12.00;99.90
23411;DHT22;11878;51.774;7.220;2022-12-20T10:32:58;12.00;99.90
23411;DHT22;11878;51.774;7.220;2022-12-20T10:36:29;12.10;99.90
23411;DHT22;11878;51.774;7.220;2022-12-20T10:39:47;12.00;99.90
23411;DHT22;11878;51.774;7.220;2022-12-20T10:42:49;11.90;99.90
23411;DHT22;11878;51.774;7.220;2022-12-20T10:46:06;11.90;99.90
23411;DHT22;11878;51.774;7.220;2022-12-20T10:49:31;11.80;99.90
23411;DHT22;11878;51.774;7.220;2022-12-20T10:52:33;11.90;99.90
23411;DHT22;11878;51.774;7.220;2022-12-20T10:55:40;11.90;99.90
23411;DHT22;11878;51.774;7.220;2022-12-20T10:58:42;11.90;99.90
23411;DHT22;11878;51.774;7.220;2022-12-20T11:01:51;11.90;99.90
23411;DHT22;11878;51.774;7.220;2022-12-20T11:05:21;11.90;99.90
23411;DHT22;11878;51.774;7.220;2022-12-20T11:08:24;11.90;99.90
23411;DHT22;11878;51.774;7.220;2022-12-20T11:11:57;11.90;99.90
23411;DHT22;11878;51.774;7.220;2022-12-20T11:15:33;11.90;99.90
23411;DHT22;11878;51.774;7.220;2022-12-20T11:18:37;12.00;99.90
23411;DHT22;11878;51.774;7.220;2022-12-20T11:28:58;12.00;99.90
23411;DHT22;11878;51.774;7.220;2022-12-20T11:35:37;12.10;99.90
23411;DHT22;11878;51.774;7.220;2022-12-20T11:38:55;12.00;99.90
23411;DHT22;11878;51.774;7.220;2022-12-20T11:52:24;12.00;99.90
23411;DHT22;11878;51.774;7.220;2022-12-20T11:55:38;12.00;99.90
23411;DHT22;11878;51.774;7.220;2022-12-20T12:05:06;12.10;99.90
23411;DHT22;11878;51.774;7.220;2022-12-20T12:08:21;12.10;99.90
23411;DHT22;11878;51.774;7.220;2022-12-20T12:11:28;12.10;99.90
23411;DHT22;11878;51.774;7.220;2022-12-20T12:18:20;12.00;99.90
23411;DHT22;11878;51.774;7.220;2022-12-20T12:21:25;11.90;99.90
23411;DHT22;11878;51.774;7.220;2022-12-20T12:24:33;11.90;99.90
23411;DHT22;11878;51.774;7.220;2022-12-20T12:27:35;12.00;99.90
23411;DHT22;11878;51.774;7.220;2022-12-20T12:30:42;12.00;99.90
23411;DHT22;11878;51.774;7.220;2022-12-20T12:34:23;12.00;99.90
23411;DHT22;11878;51.774;7.220;2022-12-20T12:37:53;12.00;99.90
23411;DHT22;11878;51.774;7.220;2022-12-20T12:48:21;11.90;99.90
23411;DHT22;11878;51.774;7.220;2022-12-20T12:52:21;11.90;99.90
23411;DHT22;11878;51.774;7.220;2022-12-20T12:54:52;12.00;99.90
23411;DHT22;11878;51.774;7.220;2022-12-20T12:57:56;11.90;99.90
23411;DHT22;11878;51.774;7.220;2022-12-20T13:01:09;11.90;99.90
23411;DHT22;11878;51.774;7.220;2022-12-20T13:13:35;11.80;99.90
23411;DHT22;11878;51.774;7.220;2022-12-20T13:16:40;11.80;99.90
23411;DHT22;11878;51.774;7.220;2022-12-20T13:20:16;11.80;99.90
23411;DHT22;11878;51.774;7.220;2022-12-20T13:23:18;11.90;99.90
23411;DHT22;11878;51.774;7.220;2022-12-20T13:26:48;11.80;99.90
23411;DHT22;11878;51.774;7.220;2022-12-20T13:33:47;11.90;99.90
23411;DHT22;11878;51.774;7.220;2022-12-20T13:36:57;11.90;99.90
23411;DHT22;11878;51.774;7.220;2022-12-20T13:39:59;12.00;99.90
23411;DHT22;11878;51.774;7.220;2022-12-20T13:43:06;11.90;99.90
23411;DHT22;11878;51.774;7.220;2022-12-20T13:46:24;11.90;99.90
23411;DHT22;11878;51.774;7.220;2022-12-20T13:49:33;11.90;99.90
23411;DHT22;11878;51.774;7.220;2022-12-20T13:52:42;11.90;99.90
23411;DHT22;11878;51.774;7.220;2022-12-20T13:55:45;11.80;99.90
23411;DHT22;11878;51.774;7.220;2022-12-20T13:58:47;11.70;99.90
23411;DHT22;11878;51.774;7.220;2022-12-20T14:01:51;11.60;99.90
23411;DHT22;11878;51.774;7.220;2022-12-20T14:05:02;11.60;99.90
23411;DHT22;11878;51.774;7.220;2022-12-20T14:08:08;11.50;99.90
23411;DHT22;11878;51.774;7.220;2022-12-20T14:11:13;11.50;99.90
23411;DHT22;11878;51.774;7.220;2022-12-20T14:14:15;11.40;99.90
23411;DHT22;11878;51.774;7.220;2022-12-20T14:17:23;11.30;99.90
23411;DHT22;11878;51.774;7.220;2022-12-20T14:20:32;11.30;99.90
23411;DHT22;11878;51.774;7.220;2022-12-20T14:23:38;11.20;99.90
23411;DHT22;11878;51.774;7.220;2022-12-20T14:26:43;11.10;99.90
23411;DHT22;11878;51.774;7.220;2022-12-20T14:29:45;11.00;99.90
23411;DHT22;11878;51.774;7.220;2022-12-20T14:32:48;10.90;99.90
23411;DHT22;11878;51.774;7.220;2022-12-20T14:35:50;10.90;99.90
23411;DHT22;11878;51.774;7.220;2022-12-20T14:38:52;10.80;99.90
23411;DHT22;11878;51.774;7.220;2022-12-20T14:41:57;10.80;99.90
23411;DHT22;11878;51.774;7.220;2022-12-20T14:45:16;10.80;99.90
23411;DHT22;11878;51.774;7.220;2022-12-20T14:48:19;10.70;99.90
23411;DHT22;11878;51.774;7.220;2022-12-20T14:51:21;10.60;99.90
23411;DHT22;11878;51.774;7.220;2022-12-20T14:54:27;10.60;99.90
23411;DHT22;11878;51.774;7.220;2022-12-20T14:57:54;10.60;99.90
23411;DHT22;11878;51.774;7.220;2022-12-20T15:00:59;10.60;99.90
23411;DHT22;11878;51.774;7.220;2022-12-20T15:04:01;10.60;99.90
23411;DHT22;11878;51.774;7.220;2022-12-20T15:07:03;10.50;99.90
23411;DHT22;11878;51.774;7.220;2022-12-20T15:10:06;10.50;99.90
23411;DHT22;11878;51.774;7.220;2022-12-20T15:13:15;10.50;99.90
23411;DHT22;11878;51.774;7.220;2022-12-20T15:16:35;10.50;99.90
23411;DHT22;11878;51.774;7.220;2022-12-20T15:19:38;10.50;99.90
23411;DHT22;11878;51.774;7.220;2022-12-20T15:22:43;10.40;99.90
23411;DHT22;11878;51.774;7.220;2022-12-20T15:25:46;10.40;99.90
23411;DHT22;11878;51.774;7.220;2022-12-20T15:28:48;10.40;99.90
23411;DHT22;11878;51.774;7.220;2022-12-20T15:31:52;10.40;99.90
23411;DHT22;11878;51.774;7.220;2022-12-20T15:34:54;10.40;99.90
23411;DHT22;11878;51.774;7.220;2022-12-20T15:37:56;10.40;99.90
23411;DHT22;11878;51.774;7.220;2022-12-20T15:41:04;10.40;99.90
23411;DHT22;11878;51.774;7.220;2022-12-20T15:44:20;10.30;99.90
23411;DHT22;11878;51.774;7.220;2022-12-20T15:47:22;10.40;99.90
23411;DHT22;11878;51.774;7.220;2022-12-20T15:50:24;10.30;99.90
23411;DHT22;11878;51.774;7.220;2022-12-20T15:53:30;10.30;99.90
23411;DHT22;11878;51.774;7.220;2022-12-20T15:56:32;10.30;99.90
23411;DHT22;11878;51.774;7.220;2022-12-20T15:59:34;10.30;99.90
23411;DHT22;11878;51.774;7.220;2022-12-20T16:02:56;10.30;99.90
23411;DHT22;11878;51.774;7.220;2022-12-20T16:06:00;10.30;99.90
23411;DHT22;11878;51.774;7.220;2022-12-20T16:09:01;10.20;99.90
23411;DHT22;11878;51.774;7.220;2022-12-20T16:15:39;10.20;99.90
23411;DHT22;11878;51.774;7.220;2022-12-20T16:18:41;10.20;99.90
23411;DHT22;11878;51.774;7.220;2022-12-20T16:21:50;10.20;99.90
23411;DHT22;11878;51.774;7.220;2022-12-20T16:24:52;10.20;99.90
23411;DHT22;11878;51.774;7.220;2022-12-20T16:27:54;10.30;99.90
23411;DHT22;11878;51.774;7.220;2022-12-20T16:30:56;10.20;99.90
23411;DHT22;11878;51.774;7.220;2022-12-20T16:34:00;10.20;99.90
23411;DHT22;11878;51.774;7.220;2022-12-20T16:37:03;10.20;99.90
23411;DHT22;11878;51.774;7.220;2022-12-20T16:40:07;10.20;99.90
23411;DHT22;11878;51.774;7.220;2022-12-20T16:43:13;10.20;99.90
23411;DHT22;11878;51.774;7.220;2022-12-20T16:46:19;10.20;99.90
23411;DHT22;11878;51.774;7.220;2022-12-20T16:49:21;10.10;99.90
23411;DHT22;11878;51.774;7.220;2022-12-20T16:52:23;10.20;99.90
23411;DHT22;11878;51.774;7.220;2022-12-20T16:55:26;10.10;99.90
23411;DHT22;11878;51.774;7.220;2022-12-20T16:58:27;10.20;99.90
23411;DHT22;11878;51.774;7.220;2022-12-20T17:01:52;10.20;99.90
23411;DHT22;11878;51.774;7.220;2022-12-20T17:04:55;10.10;99.90
23411;DHT22;11878;51.774;7.220;2022-12-20T17:07:57;10.10;99.90
23411;DHT22;11878;51.774;7.220;2022-12-20T17:10:59;10.10;99.90
23411;DHT22;11878;51.774;7.220;2022-12-20T17:14:00;10.10;99.90
23411;DHT22;11878;51.774;7.220;2022-12-20T17:17:02;10.10;99.90
23411;DHT22;11878;51.774;7.220;2022-12-20T17:20:04;10.10;99.90
23411;DHT22;11878;51.774;7.220;2022-12-20T17:23:10;10.10;99.90
23411;DHT22;11878;51.774;7.220;2022-12-20T17:26:32;10.10;99.90
23411;DHT22;11878;51.774;7.220;2022-12-20T17:29:34;10.00;99.90
23411;DHT22;11878;51.774;7.220;2022-12-20T17:32:36;10.00;99.90
23411;DHT22;11878;51.774;7.220;2022-12-20T17:35:38;10.60;99.90
23411;DHT22;11878;51.774;7.220;2022-12-20T17:38:40;10.90;99.90
23411;DHT22;11878;51.774;7.220;2022-12-20T17:41:48;10.60;99.90
23411;DHT22;11878;51.774;7.220;2022-12-20T17:44:54;10.30;99.90
23411;DHT22;11878;51.774;7.220;2022-12-20T17:47:58;10.50;99.90
23411;DHT22;11878;51.774;7.220;2022-12-20T17:51:00;10.50;99.90
23411;DHT22;11878;51.774;7.220;2022-12-20T17:54:03;10.00;99.90
23411;DHT22;11878;51.774;7.220;2022-12-20T17:57:16;10.00;99.90
23411;DHT22;11878;51.774;7.220;2022-12-20T18:00:30;11.20;99.90
23411;DHT22;11878;51.774;7.220;2022-12-20T18:03:42;9.90;99.90
23411;DHT22;11878;51.774;7.220;2022-12-20T18:07:06;10.40;99.90
23411;DHT22;11878;51.774;7.220;2022-12-20T18:10:09;9.80;99.90
23411;DHT22;11878;51.774;7.220;2022-12-20T18:13:17;10.00;99.90
23411;DHT22;11878;51.774;7.220;2022-12-20T18:16:22;10.00;99.90
23411;DHT22;11878;51.774;7.220;2022-12-20T18:19:28;10.00;99.90
23411;DHT22;11878;51.774;7.220;2022-12-20T18:22:34;10.20;99.90
23411;DHT22;11878;51.774;7.220;2022-12-20T18:25:37;10.00;99.90
23411;DHT22;11878;51.774;7.220;2022-12-20T18:28:41;10.00;99.90
23411;DHT22;11878;51.774;7.220;2022-12-20T18:31:46;10.00;99.90
23411;DHT22;11878;51.774;7.220;2022-12-20T18:34:51;10.30;99.90
23411;DHT22;11878;51.774;7.220;2022-12-20T18:37:58;10.00;99.90
23411;DHT22;11878;51.774;7.220;2022-12-20T18:41:02;9.90;99.90
23411;DHT22;11878;51.774;7.220;2022-12-20T18:44:09;9.90;99.90
23411;DHT22;11878;51.774;7.220;2022-12-20T18:47:14;10.10;99.90
23411;DHT22;11878;51.774;7.220;2022-12-20T18:50:22;10.30;99.90
23411;DHT22;11878;51.774;7.220;2022-12-20T18:53:25;10.40;99.90
23411;DHT22;11878;51.774;7.220;2022-12-20T18:56:32;9.90;99.90
23411;DHT22;11878;51.774;7.220;2022-12-20T18:59:35;10.00;99.90
23411;DHT22;11878;51.774;7.220;2022-12-20T19:02:40;10.20;99.90
23411;DHT22;11878;51.774;7.220;2022-12-20T19:05:42;10.60;99.90
23411;DHT22;11878;51.774;7.220;2022-12-20T19:08:52;9.80;99.90
23411;DHT22;11878;51.774;7.220;2022-12-20T19:11:56;10.00;99.90
23411;DHT22;11878;51.774;7.220;2022-12-20T19:14:59;10.60;99.90
23411;DHT22;11878;51.774;7.220;2022-12-20T19:18:02;10.00;99.90
23411;DHT22;11878;51.774;7.220;2022-12-20T19:21:06;9.90;99.90
23411;DHT22;11878;51.774;7.220;2022-12-20T19:24:10;10.70;99.90
23411;DHT22;11878;51.774;7.220;2022-12-20T19:27:15;10.00;99.90
23411;DHT22;11878;51.774;7.220;2022-12-20T19:30:22;9.80;99.90
23411;DHT22;11878;51.774;7.220;2022-12-20T19:33:25;10.40;99.90
23411;DHT22;11878;51.774;7.220;2022-12-20T19:36:34;11.00;99.90
23411;DHT22;11878;51.774;7.220;2022-12-20T19:39:36;9.90;99.90
23411;DHT22;11878;51.774;7.220;2022-12-20T19:42:40;10.80;99.90
23411;DHT22;11878;51.774;7.220;2022-12-20T19:45:45;10.00;99.90
23411;DHT22;11878;51.774;7.220;2022-12-20T19:48:52;9.90;99.90
23411;DHT22;11878;51.774;7.220;2022-12-20T19:52:04;10.20;99.90
23411;DHT22;11878;51.774;7.220;2022-12-20T19:55:07;9.90;99.90
23411;DHT22;11878;51.774;7.220;2022-12-20T19:58:09;10.00;99.90
23411;DHT22;11878;51.774;7.220;2022-12-20T20:01:11;11.10;99.90
23411;DHT22;11878;51.774;7.220;2022-12-20T20:04:16;10.20;99.90
23411;DHT22;11878;51.774;7.220;2022-12-20T20:07:26;11.10;99.90
23411;DHT22;11878;51.774;7.220;2022-12-20T20:10:28;10.00;99.90
23411;DHT22;11878;51.774;7.220;2022-12-20T20:13:34;10.20;99.90
23411;DHT22;11878;51.774;7.220;2022-12-20T20:16:39;10.30;99.90
23411;DHT22;11878;51.774;7.220;2022-12-20T20:19:43;10.00;99.90
23411;DHT22;11878;51.774;7.220;2022-12-20T20:22:55;11.00;99.90
23411;DHT22;11878;51.774;7.220;2022-12-20T20:25:57;10.30;99.90
23411;DHT22;11878;51.774;7.220;2022-12-20T20:29:03;9.80;99.90
23411;DHT22;11878;51.774;7.220;2022-12-20T20:32:05;10.90;99.90
23411;DHT22;11878;51.774;7.220;2022-12-20T20:35:09;10.80;99.90
23411;DHT22;11878;51.774;7.220;2022-12-20T20:38:11;10.40;99.90
23411;DHT22;11878;51.774;7.220;2022-12-20T20:41:16;10.00;99.90
23411;DHT22;11878;51.774;7.220;2022-12-20T20:44:19;10.40;99.90
23411;DHT22;11878;51.774;7.220;2022-12-20T20:47:30;10.10;99.90
23411;DHT22;11878;51.774;7.220;2022-12-20T20:50:38;10.90;99.90
23411;DHT22;11878;51.774;7.220;2022-12-20T20:53:46;10.10;99.90
23411;DHT22;11878;51.774;7.220;2022-12-20T20:56:48;10.10;99.90